Latest Coastal Weather Observations for Yanakie

IDV60701

Issued at 7:21 am EST Tuesday 3 May 2016 (issued every 10 minutes, with the page automatically refreshed every 10 minutes)

About coastal observations | Map of coastal stations | Coastal observations for VIC | Marine services | Other Formats
Station Details ID: 085301 Name: YANAKIE Lat: -38.81 Lon: 146.19 Height: 13.3 m
Data from the previous 72 hours. | See also: Recent months at Yanakie
Date/Time
EST
Temp

°C
Wind Pressure Rain
since 9am
mm
Weather Cloud Vis
km
Sea
Height
m
Swell
Dir
 
Speed
knots
Gust
knots
hPa Trend Height
m
Period
s
Dir
03/07:00am 16.6 NNW 27 41 998.8 - 0.0 - - - - - - -
03/06:30am 16.7 NNW 28 42 999.0 - 0.0 - - - - - - -
03/06:00am 16.3 NW 23 34 999.8 - 0.0 - - - - - - -
03/05:30am 16.1 NNW 19 31 1000.4 - 0.0 - - - - - - -
03/05:04am 16.1 NNW 17 33 1000.7 - 0.0 - - - - - - -
03/05:00am 16.0 NNW 16 26 1000.8 - 0.0 - - - - - - -
03/04:33am 16.2 NNW 20 31 1000.9 - 0.0 - - - - - - -
03/04:30am 16.1 NNW 20 29 1001.0 - 0.0 - - - - - - -
03/04:00am 16.4 NNW 24 34 1001.2 - 0.0 - - - - - - -
03/03:30am 16.6 NNW 27 41 1001.3 - 0.0 - - - - - - -
03/03:00am 16.8 NNW 24 37 1001.9 - 0.0 - - - - - - -
03/02:32am 16.8 NNW 18 31 1002.0 - 0.0 - - - - - - -
03/02:30am 16.5 NNW 18 27 1002.1 - 0.0 - - - - - - -
03/02:00am 16.1 NNW 18 32 1002.6 - 0.0 - - - - - - -
03/01:31am 16.0 NNW 16 26 1003.0 - 0.0 - - - - - - -
03/01:30am 15.7 NNW 16 24 1003.1 - 0.0 - - - - - - -
03/01:00am 15.7 NNW 16 27 1003.5 - 0.0 - - - - - - -
03/12:35am 15.4 NNW 15 26 1003.8 - 0.0 - - - - - - -
03/12:30am 15.4 NNW 16 26 1003.8 - 0.0 - - - - - - -
03/12:11am 15.5 NNW 17 29 1004.0 - 0.0 - - - - - - -
03/12:00am 15.2 NNW 17 24 1004.3 - 0.0 - - - - - - -
 
Date/Time
EST
Temp

°C
Wind Pressure Rain
since 9am
mm
Weather Cloud Vis
km
Sea
Height
m
Swell
Dir
 
Speed
knots
Gust
knots
hPa Trend Height
m
Period
s
Dir
02/11:30pm 15.2 NNW 14 25 1004.6 - 0.0 - - - - - - -
02/11:00pm 15.1 NNW 15 20 1005.3 - 0.0 - - - - - - -
02/10:30pm 14.4 NNW 13 19 1005.7 - 0.0 - - - - - - -
02/10:00pm 14.3 NNW 14 22 1005.9 - 0.0 - - - - - - -
02/09:30pm 14.1 NNW 15 24 1006.1 - 0.0 - - - - - - -
02/09:07pm 14.2 NNW 15 26 1006.3 - 0.0 - - - - - - -
02/09:00pm 14.6 NNW 17 26 1006.4 - 0.0 - - - - - - -
02/08:30pm 14.0 NNW 14 20 1006.7 - 0.0 - - - - - - -
02/08:00pm 14.3 NNW 15 22 1006.8 - 0.0 - - - - - - -
02/07:30pm 14.2 NNW 14 23 1006.9 - 0.0 - - - - - - -
02/07:00pm 14.0 NNW 14 22 1007.2 - 0.0 - - - - - - -
02/06:30pm 14.4 NNW 16 25 1007.5 - 0.0 - - - - - - -
02/06:14pm 14.7 NNW 17 27 1007.2 - 0.0 - - - - - - -
02/06:00pm 14.4 NNW 15 20 1007.2 - 0.0 - - - - - - -
02/05:30pm 14.7 NNW 15 22 1007.3 - 0.0 - - - - - - -
02/05:00pm 15.3 NW 15 22 1007.4 - 0.0 - - - - - - -
02/04:33pm 15.9 NW 15 26 1007.5 - 0.0 - - - - - - -
02/04:30pm 16.0 NNW 13 23 1007.5 - 0.0 - - - - - - -
02/04:00pm 16.3 NNW 12 20 1008.0 - 0.0 - - - - - - -
02/03:30pm 17.1 NNW 15 20 1008.1 - 0.0 - - - - - - -
02/03:00pm 16.7 NNW 16 21 1008.1 - 0.0 - - - - - - -
02/02:30pm 16.8 NNW 17 25 1008.2 - 0.0 - - - - - - -
02/02:00pm 16.6 NNW 18 26 1008.3 - 0.0 - - - - - - -
02/01:30pm 17.0 NNW 20 27 1008.4 - 0.0 - - - - - - -
02/01:00pm 16.7 NW 17 23 1008.9 - 0.0 - - - - - - -
02/12:52pm 17.1 NW 18 29 1009.0 - 0.0 - - - - - - -
02/12:30pm 15.9 NW 17 25 1009.4 - 0.0 - - - - - - -
02/12:00pm 15.0 NNW 14 22 1009.9 - 0.0 - - - - - - -
02/11:30am 14.4 NW 16 23 1010.7 - 0.0 - - - - - - -
02/11:00am 14.6 NW 16 22 1011.0 - 0.0 - - - - - - -
02/10:30am 13.3 NW 15 22 1011.4 - 0.0 - - - - - - -
02/10:00am 13.5 NW 16 26 1011.5 - 0.0 - - - - - - -
02/09:30am 12.7 NW 14 20 1011.6 - 0.0 - - - - - - -
02/09:00am 12.0 NW 16 23 1011.9 - 15.8 - - - - - - -
02/08:30am 11.1 NW 14 19 1011.9 - 15.8 - - - - - - -
02/08:00am 10.2 NNW 13 20 1011.9 - 15.8 - - - - - - -
02/07:30am 9.7 NNW 12 17 1011.8 - 15.8 - - - - - - -
02/07:00am 9.6 NNW 12 19 1011.7 - 15.8 - - - - - - -
02/06:30am 9.2 NNW 13 17 1011.6 - 15.8 - - - - - - -
02/06:00am 9.1 NNW 12 18 1011.6 - 15.8 - - - - - - -
02/05:30am 9.2 NW 11 15 1011.8 - 15.8 - - - - - - -
02/05:00am 8.9 NW 9 13 1011.9 - 15.8 - - - - - - -
02/04:30am 9.0 NW 11 15 1011.9 - 15.8 - - - - - - -
02/04:00am 9.2 NW 13 17 1011.8 - 15.8 - - - - - - -
02/03:30am 9.5 NW 14 18 1011.9 - 15.8 - - - - - - -
02/03:00am 9.2 NW 11 17 1011.9 - 15.8 - - - - - - -
02/02:30am 9.2 NW 12 17 1012.1 - 15.8 - - - - - - -
02/02:00am 9.2 NW 10 15 1012.2 - 15.8 - - - - - - -
02/01:30am 9.6 NW 10 14 1012.3 - 15.8 - - - - - - -
02/01:00am 10.1 NW 14 19 1012.2 - 15.8 - - - - - - -
02/12:30am 10.0 NW 12 17 1012.4 - 15.8 - - - - - - -
02/12:00am 10.5 NW 14 20 1012.7 - 15.8 - - - - - - -
 
Date/Time
EST
Temp

°C
Wind Pressure Rain
since 9am
mm
Weather Cloud Vis
km
Sea
Height
m
Swell
Dir
 
Speed
knots
Gust
knots
hPa Trend Height
m
Period
s
Dir
01/11:30pm 10.5 NW 12 17 1012.8 - 15.8 - - - - - - -
01/11:00pm 10.4 NW 15 20 1012.6 - 15.8 - - - - - - -
01/10:30pm 10.4 NW 15 23 1012.8 - 15.8 - - - - - - -
01/10:00pm 10.8 WNW 16 21 1012.8 - 15.6 - - - - - - -
01/09:30pm 10.8 WNW 13 17 1012.6 - 15.4 - - - - - - -
01/09:00pm 11.1 W 14 20 1012.5 - 15.4 Recent precip. - - - - - -
01/08:47pm 11.1 WNW 15 26 1012.3 - 15.4 - - - - - - -
01/08:30pm 12.1 WNW 12 16 1012.0 - 15.4 - - - - - - -
01/08:00pm 12.2 W 15 25 1011.8 - 15.2 - - - - - - -
01/07:30pm 12.4 WNW 11 18 1011.4 - 15.2 - - - - - - -
01/07:00pm 12.3 WNW 14 20 1011.1 - 15.2 - - - - - - -
01/06:30pm 12.4 W 18 27 1010.8 - 15.2 - - - - - - -
01/06:00pm 11.9 W 18 29 1010.0 - 15.2 - - - - - - -
01/05:30pm 11.9 W 23 34 1009.5 - 15.2 - - - - - - -
01/05:18pm 12.6 W 21 31 1009.3 - 15.2 - - - - - - -
01/05:00pm 11.6 WNW 14 20 1009.0 - 15.2 - - - - - - -
01/04:45pm 11.7 WNW 15 27 1009.0 - 15.0 - - - - - - -
01/04:30pm 11.8 WNW 14 22 1008.5 - 14.8 - - - - - - -
01/04:09pm 11.9 W 15 24 1008.4 - 14.8 - - - - - - -
01/04:00pm 11.9 W 8 12 1008.4 - 13.8 - - - - - - -
01/03:30pm 11.0 W 23 32 1008.1 - 11.8 - - - - - - -
01/03:02pm 11.9 WNW 19 30 1007.0 - 8.6 - - - - - - -
01/03:00pm 12.0 WNW 19 26 1007.1 - 8.6 - - - - - - -
01/02:30pm 12.8 WNW 21 30 1006.4 - 8.6 - - - - - - -
01/02:23pm 13.2 NW 20 30 1006.4 - 8.6 - - - - - - -
01/02:00pm 12.0 WNW 18 26 1005.9 - 8.6 - - - - - - -
01/01:30pm 11.7 WNW 21 31 1006.0 - 8.2 - - - - - - -
01/01:04pm 12.5 WNW 21 34 1005.7 - 7.6 - - - - - - -
01/01:00pm 12.6 W 21 31 1005.8 - 7.6 - - - - - - -
01/12:30pm 11.7 WNW 24 38 1005.5 - 6.6 - - - - - - -
01/12:28pm 11.7 WNW 22 38 1005.4 - 6.0 - - - - - - -
01/12:26pm 12.0 WNW 22 38 1005.3 - 5.8 - - - - - - -
01/12:03pm 12.7 WNW 18 29 1004.9 - 5.2 - - - - - - -
01/12:00pm 12.8 WNW 20 29 1004.9 - 4.8 Rain - - - - - -
01/11:30am 13.2 NW 25 35 1004.6 - 4.2 - - - - - - -
01/11:06am 13.9 WNW 27 38 1004.3 - 4.2 - - - - - - -
01/11:00am 13.5 WNW 29 37 1004.2 - 4.2 - - - - - - -
01/10:30am 14.6 NW 26 37 1003.7 - 4.2 - - - - - - -
01/10:02am 13.8 NW 22 32 1003.4 - 4.2 - - - - - - -
01/10:00am 13.7 NW 21 28 1003.4 - 4.2 - - - - - - -
01/09:30am 12.8 WNW 22 34 1003.0 - 3.2 - - - - - - -
01/09:16am 11.5 WNW 25 39 1002.9 - 1.0 - - - - - - -
01/09:01am 17.0 NW 24 34 1002.2 - 0.0 - - - - - - -
01/09:00am 16.9 NW 25 35 1002.1 - 6.2 Recent precip. - - - - - -
01/08:31am 16.2 NNW 18 29 1002.0 - 6.0 - - - - - - -
01/08:30am 16.1 NNW 18 27 1002.0 - 6.0 - - - - - - -
01/08:09am 15.8 NNW 17 28 1002.0 - 6.0 - - - - - - -
01/08:00am 15.5 NNW 15 22 1002.0 - 6.0 - - - - - - -
01/07:30am 15.0 NNW 12 16 1001.7 - 6.0 - - - - - - -
01/07:00am 14.5 NNW 11 17 1001.8 - 6.0 - - - - - - -
01/06:30am 14.1 NNW 8 11 1002.1 - 6.0 - - - - - - -
01/06:00am 14.4 N 9 13 1001.7 - 6.0 Recent precip. - - - - - -
01/05:30am 14.1 NNW 6 10 1002.8 - 6.0 - - - - - - -
01/05:21am 14.0 NNW 7 17 1001.6 - 6.0 - - - - - - -
01/05:00am 14.1 NW 13 20 1003.6 - 5.2 - - - - - - -
01/04:39am 15.9 NNW 10 38 1004.0 - 0.6 - - - - - - -
01/04:37am 16.8 NNE 6 28 1003.6 - 0.2 - - - - - - -
01/04:30am 17.0 ENE 6 9 1001.2 - 0.0 - - - - - - -
01/04:00am 16.9 ENE 7 11 1000.3 - 0.0 - - - - - - -
01/03:30am 17.2 ENE 8 12 1001.4 - 0.0 - - - - - - -
01/03:00am 16.7 ENE 7 10 1002.4 - 0.0 - - - - - - -
01/02:30am 16.9 ENE 8 11 1003.5 - 0.0 - - - - - - -
01/02:00am 17.5 ENE 7 11 1004.1 - 0.0 - - - - - - -
01/01:30am 16.8 ENE 6 9 1004.9 - 0.0 - - - - - - -
01/01:00am 16.6 ENE 5 8 1005.6 - 0.0 - - - - - - -
01/12:30am 16.4 ENE 6 7 1006.5 - 0.0 - - - - - - -
01/12:00am 16.4 ENE 5 8 1007.1 - 0.0 - - - - - - -
 
Date/Time
EST
Temp

°C
Wind Pressure Rain
since 9am
mm
Weather Cloud Vis
km
Sea
Height
m
Swell
Dir
 
Speed
knots
Gust
knots
hPa Trend Height
m
Period
s
Dir
30/11:30pm 16.2 ENE 5 7 1007.7 - 0.0 - - - - - - -
30/11:00pm 16.8 NE 5 7 1008.6 - 0.0 - - - - - - -
30/10:30pm 16.1 NE 5 7 1009.1 - 0.0 - - - - - - -
30/10:00pm 15.8 NE 4 5 1009.8 - 0.0 - - - - - - -
30/09:30pm 16.1 NNE 4 5 1010.0 - 0.0 - - - - - - -
30/09:00pm 17.0 NNE 5 6 1010.1 - 0.0 - - - - - - -
30/08:30pm 17.2 N 4 6 1010.3 - 0.0 - - - - - - -
30/08:00pm 17.6 NNE 4 6 1010.3 - 0.0 - - - - - - -
30/07:30pm 17.9 NNE 4 6 1010.4 - 0.0 - - - - - - -
30/07:00pm 18.1 NNE 4 5 1010.3 - 0.0 - - - - - - -
30/06:30pm 19.7 N 4 5 1010.3 - 0.0 - - - - - - -
30/06:00pm 19.8 N 4 5 1010.2 - 0.0 - - - - - - -
30/05:30pm 20.4 N 4 7 1010.2 - 0.0 - - - - - - -
30/05:00pm 22.0 NNW 7 10 1010.3 - 0.0 - - - - - - -
30/04:30pm 23.2 NNW 7 10 1010.5 - 0.0 - - - - - - -
30/04:00pm 23.9 NNW 8 13 1010.7 - 0.0 - - - - - - -
30/03:30pm 23.1 NNW 10 15 1010.8 - 0.0 - - - - - - -
30/03:00pm 24.6 NNW 13 17 1010.7 - 0.0 - - - - - - -
30/02:30pm 23.6 NNW 13 19 1010.9 - 0.0 - - - - - - -
30/02:00pm 24.6 NNW 12 19 1010.9 - 0.0 - - - - - - -
30/01:30pm 24.6 NNW 13 19 1011.1 - 0.0 - - - - - - -
30/01:00pm 24.2 NNW 12 17 1011.5 - 0.0 - - - - - - -
30/12:30pm 23.8 NNW 14 19 1012.0 - 0.0 - - - - - - -
30/12:00pm 21.3 NE 3 4 1012.8 - 0.0 - - - - - - -
30/11:30am 20.0 NE 4 6 1013.1 - 0.0 - - - - - - -
30/11:00am 20.2 ENE 4 6 1013.5 - 0.0 - - - - - - -
30/10:30am 20.5 ENE 6 8 1013.5 - 0.0 - - - - - - -
30/10:00am 20.4 NE 5 7 1013.8 - 0.0 - - - - - - -
30/09:30am 19.2 NE 5 8 1014.1 - 0.0 - - - - - - -
30/09:00am 18.1 ENE 5 7 1014.3 - 5.6 - - - - - - -
30/08:30am 17.1 ENE 3 7 1014.5 - 5.6 - - - - - - -
30/08:00am 15.7 ENE 3 5 1014.5 - 5.6 - - - - - - -
30/07:30am 13.9 NE 3 5 1014.3 - 5.6 - - - - - - -

Other Formats:

Comma delimited format used in spreadsheet applications
http://www.bom.gov.au/fwo/IDV60701/IDV60701.94911.axf

JavaScript Object Notation format (JSON) in row-major order
http://www.bom.gov.au/fwo/IDV60701/IDV60701.94911.json